Cambridge / Reid's Field

CPE4 · 安大略, 加拿大

罗盘
风向 的 风向 230° Cambridge / Reid's Field 17/35
风向 到 风: 11 kt, 阵阵 19 kt, 4 beaufort

4 kt

10 kt
改变
0 1.000 2.000 3.000 4.000 5.000
没有云
METAR CYKF 050500Z AUTO 23011G19KT 9SM CLR M02/M09 A2995 RMK SLP157

METAR Cambridge / Reid's Field - CPE4

Cambridge / Reid's Field是,加拿大中的小机场。 该机场有一条跑道: 17/35. 该领域的国际民航组织标志是CPE4.

这份报告是针对2022年12月5日 00:00, 当地时间在Waterloo Airport进行的。

机场观察

风向为230°,速度为11 kt。 已测得19 kt的阵风。

可见度为9 mi。

有没有云。 没有观察到天花板。

温度为-2 °C,阵风为-11 °C。 露点为-9 °C,相对湿度为59%。 海平面上的气压为29,95 inHg (QNH)。

白天

今天,太阳从07:38升起,在16:45降落。 这适用于Cambridge / Reid's Field,世界夏令时可能有所不同。 当地时间与世界标准时间之间的时差为-5 小时。 当前,没有夏令时有效。

公司介绍

我们没有关于这个机场的公司信息。

体会

到Vliegles.nl去找飞行课程,跳伞和其他飞行体验。 浏览页面,了解Cambridge / Reid's Field附近所有可用的活动。 你也可以使用搜索功能来寻找你所在地附近的特定飞行课程、跳伞或其他飞行体验。

跑道

Id 标题 侧风 逆风 侧风 %
17/35 160°-340° 10-18 kt 4-6 kt 94 %

逆风成分最大的方向会被突出显示,并用于横风计算。 这并不一定意味着这个方向在使用。

乌云

- CLR 没有云

温度 & 天气

温度 -2 °C
露点 -9 °C
相对湿度 59%
风寒 -11 °C
Kp-index 1 (0-9)

评论

SLP157海平面压力为29,99 inHg (29,99 inHg)

白天

日出
07:38 (6:55)
中午
12:12
日落
16:45

小工具

你想在你的网站上有一个关于Cambridge / Reid's Field的当前航空天气(METAR)的小部件吗?

显示HTML代码

我们和第三方通过cookies跟踪您在我们网站上的互联网行为。如果你继续,我们认为你同意我们的饼干政策